| time (UTC) | temp F | wind direction | speed knots | gust knots | rain 1hr in | rain 24hr in | rain mn in | humidity % | barometer mb |
| 20260507073521 | 54 | 0 | 0.0 | 0.0 | 0.00 | 0.07 | 0.00 | 90 | 1020.2 |
| 20260507072521 | 54 | 0 | 0.0 | 0.0 | 0.00 | 0.07 | 0.00 | 91 | 1020.2 |
| 20260507072021 | 54 | 0 | 0.0 | 0.0 | 0.00 | 0.07 | 0.00 | 91 | 1020.2 |
| 20260507070521 | 54 | 0 | 0.0 | 0.0 | 0.00 | 0.07 | 0.00 | 91 | 1020.1 |
| 20260507070021 | 54 | 0 | 0.0 | 0.0 | 0.00 | 0.07 | 0.00 | 91 | 1020.2 |
| 20260507065021 | 54 | 0 | 0.0 | 0.0 | 0.00 | 0.07 | 0.07 | 90 | 1020.1 |
| 20260507063521 | 54 | 0 | 0.0 | 0.0 | 0.00 | 0.07 | 0.07 | 90 | 1020.1 |
| 20260507063021 | 54 | 0 | 0.0 | 0.0 | 0.00 | 0.07 | 0.07 | 90 | 1020.2 |
| 20260507062521 | 54 | 0 | 0.0 | 0.0 | 0.00 | 0.07 | 0.07 | 90 | 1020.1 |
| 20260507062021 | 54 | 0 | 0.0 | 0.0 | 0.00 | 0.07 | 0.07 | 90 | 1020.2 |
| 20260507061021 | 54 | 0 | 0.0 | 0.0 | 0.00 | 0.07 | 0.07 | 90 | 1020.2 |
| 20260507060521 | 54 | 0 | 0.0 | 0.0 | 0.00 | 0.07 | 0.07 | 91 | 1020.2 |
| 20260507060020 | 54 | 0 | 0.0 | 0.0 | 0.00 | 0.07 | 0.07 | 91 | 1020.2 |
| 20260507055521 | 54 | 0 | 0.0 | 0.0 | 0.00 | 0.07 | 0.07 | 91 | 1020.3 |
| 20260507053521 | 54 | 0 | 0.0 | 0.0 | 0.00 | 0.07 | 0.07 | 90 | 1020.3 |
| 20260507053021 | 55 | 0 | 0.0 | 0.0 | 0.00 | 0.07 | 0.07 | 90 | 1020.3 |
| 20260507052522 | 55 | 0 | 0.0 | 0.0 | 0.00 | 0.07 | 0.07 | 90 | 1020.3 |
| 20260507052021 | 55 | 0 | 0.0 | 0.0 | 0.00 | 0.07 | 0.07 | 90 | 1020.3 |
| 20260507051024 | 55 | 0 | 0.0 | 0.0 | 0.00 | 0.07 | 0.07 | 90 | 1020.2 |
| 20260507050021 | 55 | 0 | 0.0 | 0.0 | 0.00 | 0.07 | 0.07 | 90 | 1020.2 |
| 20260507045520 | 55 | 0 | 0.0 | 0.0 | 0.00 | 0.07 | 0.07 | 90 | 1020.2 |
| 20260507045020 | 55 | 0 | 0.0 | 0.0 | 0.00 | 0.07 | 0.07 | 90 | 1020.2 |
| 20260507044020 | 55 | 0 | 0.0 | 0.0 | 0.00 | 0.07 | 0.07 | 90 | 1020.2 |
| 20260507043520 | 55 | 0 | 0.0 | 0.0 | 0.00 | 0.07 | 0.07 | 90 | 1020.2 |
| 20260507043051 | 55 | 0 | 0.0 | 0.0 | 0.00 | 0.07 | 0.07 | 90 | 1020.2 |
| 20260507043020 | 55 | 0 | 0.0 | 0.0 | 0.00 | 0.07 | 0.07 | 90 | 1020.2 |
| 20260507042520 | 55 | 0 | 0.0 | 0.0 | 0.00 | 0.07 | 0.07 | 90 | 1020.3 |
| 20260507042022 | 55 | 0 | 0.0 | 0.0 | 0.00 | 0.07 | 0.07 | 90 | 1020.3 |
| 20260507041020 | 55 | 0 | 0.0 | 0.0 | 0.00 | 0.07 | 0.07 | 90 | 1020.2 |
| 20260507040520 | 55 | 0 | 0.0 | 0.0 | 0.00 | 0.07 | 0.07 | 90 | 1020.1 |
| 20260507040020 | 55 | 0 | 0.0 | 0.0 | 0.00 | 0.07 | 0.07 | 90 | 1020.1 |
| 20260507033019 | 55 | 0 | 0.0 | 0.0 | 0.00 | 0.07 | 0.07 | 90 | 1019.9 |
| 20260507032520 | 55 | 0 | 0.0 | 0.0 | 0.00 | 0.07 | 0.07 | 89 | 1019.9 |
| 20260507032021 | 55 | 0 | 0.0 | 0.9 | 0.00 | 0.07 | 0.07 | 89 | 1019.9 |
| 20260507031021 | 55 | 323 | 0.9 | 0.9 | 0.00 | 0.07 | 0.07 | 89 | 1019.8 |
| 20260507030521 | 55 | 0 | 0.0 | 0.0 | 0.00 | 0.07 | 0.07 | 89 | 1019.7 |
| 20260507030020 | 55 | 0 | 0.0 | 0.0 | 0.00 | 0.07 | 0.07 | 89 | 1019.8 |
| 20260507025520 | 55 | 0 | 0.0 | 0.0 | 0.00 | 0.07 | 0.07 | 90 | 1019.8 |
| 20260507025022 | 55 | 0 | 0.0 | 0.0 | 0.00 | 0.07 | 0.07 | 90 | 1019.7 |
| 20260507023520 | 56 | 0 | 0.0 | 0.0 | 0.00 | 0.07 | 0.07 | 89 | 1019.7 |
| 20260507023020 | 56 | 0 | 0.0 | 0.0 | 0.00 | 0.07 | 0.07 | 89 | 1019.7 |
| 20260507022520 | 56 | 0 | 0.0 | 0.0 | 0.00 | 0.07 | 0.07 | 89 | 1019.6 |
| 20260507022020 | 56 | 0 | 0.0 | 0.0 | 0.00 | 0.07 | 0.07 | 89 | 1019.7 |
| 20260507021020 | 56 | 0 | 0.0 | 0.0 | 0.00 | 0.07 | 0.07 | 89 | 1019.7 |
| 20260507020520 | 56 | 0 | 0.0 | 0.0 | 0.00 | 0.07 | 0.07 | 89 | 1019.7 |
| 20260507020024 | 56 | 0 | 0.0 | 0.0 | 0.00 | 0.07 | 0.07 | 89 | 1019.7 |
| 20260507015520 | 56 | 0 | 0.0 | 0.0 | 0.00 | 0.07 | 0.07 | 88 | 1019.7 |
| 20260507015020 | 56 | 0 | 0.0 | 0.0 | 0.00 | 0.07 | 0.07 | 88 | 1019.8 |
| 20260507014021 | 56 | 0 | 0.0 | 0.0 | 0.00 | 0.07 | 0.07 | 88 | 1019.8 |
| 20260507013519 | 56 | 0 | 0.0 | 0.0 | 0.00 | 0.07 | 0.07 | 88 | 1019.8 |
| 20260507013019 | 56 | 0 | 0.0 | 0.0 | 0.00 | 0.07 | 0.07 | 88 | 1019.9 |
| 20260507012520 | 56 | 0 | 0.0 | 0.0 | 0.00 | 0.07 | 0.07 | 88 | 1019.9 |
| 20260507012020 | 56 | 0 | 0.0 | 0.0 | 0.00 | 0.07 | 0.07 | 88 | 1019.9 |
| 20260507011020 | 56 | 0 | 0.0 | 0.0 | 0.00 | 0.07 | 0.07 | 88 | 1019.9 |
| 20260507010522 | 56 | 0 | 0.0 | 0.0 | 0.00 | 0.07 | 0.07 | 87 | 1020.0 |
| 20260507010021 | 57 | 0 | 0.0 | 0.0 | 0.00 | 0.07 | 0.07 | 87 | 1020.0 |
| 20260507005520 | 57 | 0 | 0.0 | 0.0 | 0.00 | 0.07 | 0.07 | 87 | 1019.9 |
| 20260507005020 | 57 | 0 | 0.0 | 0.0 | 0.00 | 0.07 | 0.07 | 87 | 1020.1 |
| 20260507004020 | 57 | 0 | 0.0 | 0.0 | 0.00 | 0.07 | 0.07 | 86 | 1020.0 |
| 20260507003520 | 57 | 0 | 0.0 | 0.0 | 0.00 | 0.07 | 0.07 | 86 | 1020.0 |
| 20260507001019 | 57 | 222 | 0.0 | 3.5 | 0.00 | 0.07 | 0.07 | 85 | 1020.2 |
| 20260507000522 | 57 | 224 | 0.0 | 2.6 | 0.00 | 0.07 | 0.07 | 85 | 1020.1 |
| 20260507000019 | 57 | 224 | 0.0 | 2.6 | 0.00 | 0.07 | 0.07 | 85 | 1020.1 |
| 20260506235519 | 57 | 229 | 0.9 | 2.6 | 0.00 | 0.07 | 0.07 | 86 | 1020.2 |
| 20260506235020 | 57 | 0 | 0.0 | 0.0 | 0.00 | 0.07 | 0.07 | 85 | 1020.2 |
| 20260506234520 | 57 | 228 | 0.0 | 5.2 | 0.00 | 0.07 | 0.07 | 86 | 1020.2 |
| 20260506234023 | 57 | 196 | 0.0 | 5.2 | 0.00 | 0.07 | 0.07 | 85 | 1020.3 |
| 20260506233520 | 57 | 222 | 0.0 | 5.2 | 0.00 | 0.07 | 0.07 | 85 | 1020.3 |
| 20260506233020 | 57 | 0 | 0.0 | 0.0 | 0.00 | 0.07 | 0.07 | 85 | 1020.3 |
| 20260506232520 | 57 | 0 | 0.0 | 0.0 | 0.00 | 0.07 | 0.07 | 85 | 1020.3 |
| 20260506231520 | 57 | 231 | 0.0 | 5.2 | 0.00 | 0.07 | 0.07 | 84 | 1020.4 |
| 20260506231019 | 58 | 219 | 0.9 | 5.2 | 0.00 | 0.07 | 0.07 | 84 | 1020.4 |
| 20260506230520 | 58 | 219 | 0.9 | 5.2 | 0.00 | 0.07 | 0.07 | 83 | 1020.5 |
| 20260506230019 | 58 | 236 | 1.7 | 3.5 | 0.00 | 0.07 | 0.07 | 83 | 1020.4 |
| 20260506225520 | 58 | 236 | 0.9 | 3.5 | 0.00 | 0.07 | 0.07 | 82 | 1020.5 |
| 20260506225020 | 58 | 224 | 0.9 | 3.5 | 0.00 | 0.07 | 0.07 | 82 | 1020.6 |
| 20260506224520 | 59 | 224 | 0.9 | 3.5 | 0.00 | 0.07 | 0.07 | 82 | 1020.6 |
| 20260506224019 | 59 | 203 | 0.0 | 2.6 | 0.00 | 0.07 | 0.07 | 82 | 1020.6 |
| 20260506223520 | 59 | 203 | 0.0 | 2.6 | 0.07 | 0.07 | 0.07 | 81 | 1020.7 |
| 20260506223020 | 59 | 221 | 1.7 | 2.6 | 0.07 | 0.07 | 0.07 | 81 | 1020.8 |
| 20260506222520 | 59 | 226 | 0.9 | 3.5 | 0.07 | 0.07 | 0.07 | 82 | 1020.8 |
| 20260506222024 | 59 | 219 | 0.9 | 3.5 | 0.07 | 0.00 | 0.00 | 81 | 1020.8 |
| 20260506222020 | 59 | 219 | 0.9 | 3.5 | 0.07 | 0.07 | 0.07 | 81 | 1020.8 |
| 20260506221519 | 59 | 285 | 0.9 | 3.5 | 0.07 | 0.07 | 0.07 | 82 | 1020.8 |
| 20260506220019 | 59 | 240 | 0.0 | 4.3 | 0.07 | 0.07 | 0.07 | 82 | 1020.7 |
| 20260506215520 | 58 | 221 | 2.6 | 3.5 | 0.07 | 0.07 | 0.07 | 81 | 1020.7 |
| 20260506215020 | 59 | 221 | 1.7 | 3.5 | 0.07 | 0.07 | 0.07 | 81 | 1020.6 |
| 20260506214519 | 59 | 261 | 0.0 | 1.7 | 0.07 | 0.07 | 0.07 | 82 | 1020.6 |
| 20260506213020 | 59 | 256 | 0.9 | 1.7 | 0.00 | 0.00 | 0.00 | 81 | 1020.6 |
| 20260506212020 | 59 | 267 | 0.0 | 2.6 | 0.00 | 0.00 | 0.00 | 81 | 1020.6 |
| 20260506211520 | 59 | 232 | 0.9 | 2.6 | 0.00 | 0.00 | 0.00 | 80 | 1020.5 |
| 20260506210520 | 59 | 235 | 0.9 | 4.3 | 0.00 | 0.00 | 0.00 | 81 | 1020.5 |
| 20260506205520 | 59 | 219 | 0.0 | 4.3 | 0.00 | 0.00 | 0.00 | 81 | 1020.5 |
| 20260506205020 | 58 | 225 | 0.0 | 3.5 | 0.00 | 0.00 | 0.00 | 80 | 1020.5 |
| 20260506204020 | 58 | 257 | 0.0 | 1.7 | 0.00 | 0.00 | 0.00 | 81 | 1020.5 |
| 20260506203520 | 58 | 226 | 0.9 | 1.7 | 0.00 | 0.00 | 0.00 | 82 | 1020.4 |
| 20260506203019 | 58 | 261 | 0.0 | 1.7 | 0.00 | 0.00 | 0.00 | 81 | 1020.4 |
| 20260506202520 | 58 | 261 | 0.0 | 1.7 | 0.00 | 0.00 | 0.00 | 81 | 1020.3 |
| 20260506200020 | 58 | 229 | 0.0 | 2.6 | 0.00 | 0.00 | 0.00 | 81 | 1020.4 |
| 20260506194519 | 58 | 233 | 0.0 | 1.7 | 0.00 | 0.00 | 0.00 | 81 | 1020.4 |
| 20260506194019 | 58 | 222 | 0.0 | 1.7 | 0.00 | 0.00 | 0.00 | 81 | 1020.4 |
| 20260506193022 | 58 | 233 | 0.0 | 4.3 | 0.00 | 0.00 | 0.00 | 81 | 1020.4 |
| 20260506192519 | 58 | 252 | 0.9 | 4.3 | 0.00 | 0.00 | 0.00 | 81 | 1020.3 |
| 20260506192019 | 58 | 0 | 0.0 | 0.0 | 0.00 | 0.00 | 0.00 | 81 | 1020.3 |
| 20260506191521 | 58 | 0 | 0.0 | 0.0 | 0.00 | 0.00 | 0.00 | 82 | 1020.2 |
| 20260506191021 | 58 | 0 | 0.0 | 0.0 | 0.00 | 0.00 | 0.00 | 81 | 1020.2 |
| 20260506190520 | 58 | 0 | 0.0 | 0.0 | 0.00 | 0.00 | 0.00 | 81 | 1020.3 |
| 20260506190019 | 58 | 0 | 0.0 | 0.0 | 0.00 | 0.00 | 0.00 | 80 | 1020.2 |
| 20260506185519 | 58 | 0 | 0.0 | 0.0 | 0.00 | 0.00 | 0.00 | 80 | 1020.3 |
| 20260506185022 | 58 | 0 | 0.0 | 0.0 | 0.00 | 0.00 | 0.00 | 81 | 1020.3 |
| 20260506184519 | 58 | 0 | 0.0 | 0.0 | 0.00 | 0.00 | 0.00 | 80 | 1020.3 |
| 20260506183519 | 58 | 0 | 0.0 | 0.0 | 0.00 | 0.00 | 0.00 | 80 | 1020.3 |
| 20260506183019 | 58 | 0 | 0.0 | 0.0 | 0.00 | 0.00 | 0.00 | 80 | 1020.2 |
| 20260506182519 | 58 | 0 | 0.0 | 0.0 | 0.00 | 0.00 | 0.00 | 80 | 1020.3 |
| 20260506182019 | 58 | 0 | 0.0 | 0.0 | 0.00 | 0.00 | 0.00 | 81 | 1020.2 |
| 20260506181519 | 58 | 0 | 0.0 | 0.0 | 0.00 | 0.00 | 0.00 | 80 | 1020.2 |
| 20260506180019 | 58 | 0 | 0.0 | 0.0 | 0.00 | 0.00 | 0.00 | 81 | 1020.1 |
| 20260506175519 | 58 | 0 | 0.0 | 0.0 | 0.00 | 0.00 | 0.00 | 82 | 1020.0 |
| 20260506175020 | 58 | 0 | 0.0 | 0.0 | 0.00 | 0.00 | 0.00 | 81 | 1019.9 |
| 20260506173019 | 57 | 0 | 0.0 | 0.0 | 0.00 | 0.00 | 0.00 | 82 | 1019.7 |
| 20260506172519 | 57 | 0 | 0.0 | 0.0 | 0.00 | 0.00 | 0.00 | 82 | 1019.6 |
| 20260506172021 | 57 | 0 | 0.0 | 0.0 | 0.00 | 0.00 | 0.00 | 82 | 1019.7 |
| 20260506171519 | 57 | 0 | 0.0 | 0.0 | 0.00 | 0.00 | 0.00 | 82 | 1019.8 |
| 20260506171020 | 57 | 0 | 0.0 | 0.0 | 0.00 | 0.00 | 0.00 | 83 | 1019.7 |
| 20260506165519 | 57 | 0 | 0.0 | 0.0 | 0.00 | 0.00 | 0.00 | 83 | 1019.6 |
| 20260506165019 | 57 | 0 | 0.0 | 0.0 | 0.00 | 0.00 | 0.00 | 84 | 1019.6 |
| 20260506164519 | 57 | 0 | 0.0 | 0.0 | 0.00 | 0.00 | 0.00 | 85 | 1019.5 |
| 20260506164020 | 57 | 0 | 0.0 | 0.0 | 0.00 | 0.00 | 0.00 | 84 | 1019.4 |
| 20260506163520 | 57 | 0 | 0.0 | 0.0 | 0.00 | 0.00 | 0.00 | 84 | 1019.4 |
| 20260506163019 | 57 | 0 | 0.0 | 0.0 | 0.00 | 0.00 | 0.00 | 84 | 1019.5 |
| 20260506162519 | 57 | 0 | 0.0 | 0.0 | 0.00 | 0.00 | 0.00 | 84 | 1019.5 |
| 20260506162019 | 57 | 0 | 0.0 | 0.0 | 0.00 | 0.00 | 0.00 | 84 | 1019.5 |
| 20260506161519 | 56 | 0 | 0.0 | 0.0 | 0.00 | 0.00 | 0.00 | 84 | 1019.5 |
| 20260506161019 | 56 | 0 | 0.0 | 0.0 | 0.00 | 0.00 | 0.00 | 85 | 1019.6 |
| 20260506160019 | 56 | 0 | 0.0 | 0.0 | 0.00 | 0.00 | 0.00 | 86 | 1019.4 |
| 20260506155519 | 56 | 0 | 0.0 | 0.0 | 0.00 | 0.00 | 0.00 | 86 | 1019.4 |
| 20260506155019 | 56 | 0 | 0.0 | 0.0 | 0.00 | 0.00 | 0.00 | 86 | 1019.3 |
| 20260506154519 | 56 | 0 | 0.0 | 0.0 | 0.00 | 0.00 | 0.00 | 86 | 1019.4 |
| 20260506154020 | 56 | 0 | 0.0 | 0.0 | 0.00 | 0.00 | 0.00 | 86 | 1019.4 |
| 20260506153019 | 56 | 0 | 0.0 | 0.0 | 0.00 | 0.00 | 0.00 | 87 | 1019.2 |
| 20260506152519 | 56 | 0 | 0.0 | 0.0 | 0.00 | 0.00 | 0.00 | 87 | 1019.2 |
| 20260506152019 | 56 | 0 | 0.0 | 0.0 | 0.00 | 0.00 | 0.00 | 87 | 1019.2 |
| 20260506151519 | 55 | 0 | 0.0 | 0.0 | 0.00 | 0.00 | 0.00 | 88 | 1019.1 |
| 20260506150520 | 55 | 0 | 0.0 | 0.0 | 0.00 | 0.00 | 0.00 | 88 | 1019.0 |
| 20260506145519 | 55 | 0 | 0.0 | 0.0 | 0.00 | 0.00 | 0.00 | 88 | 1018.9 |
| 20260506144519 | 55 | 0 | 0.0 | 0.0 | 0.00 | 0.00 | 0.00 | 89 | 1018.6 |
| 20260506144019 | 55 | 0 | 0.0 | 0.0 | 0.00 | 0.00 | 0.00 | 89 | 1018.7 |
| 20260506143019 | 55 | 0 | 0.0 | 0.0 | 0.00 | 0.00 | 0.00 | 89 | 1019.0 |
| 20260506142519 | 55 | 0 | 0.0 | 0.0 | 0.00 | 0.00 | 0.00 | 89 | 1019.0 |
| 20260506141519 | 55 | 0 | 0.0 | 0.0 | 0.00 | 0.00 | 0.00 | 88 | 1019.2 |
| 20260506141019 | 55 | 0 | 0.0 | 0.0 | 0.00 | 0.00 | 0.00 | 89 | 1019.1 |
| 20260506140019 | 55 | 0 | 0.0 | 0.0 | 0.00 | 0.00 | 0.00 | 89 | 1019.1 |
| 20260506135020 | 55 | 0 | 0.0 | 0.0 | 0.00 | 0.00 | 0.00 | 89 | 1019.0 |
| 20260506134519 | 55 | 0 | 0.0 | 0.0 | 0.00 | 0.00 | 0.00 | 89 | 1019.1 |
| 20260506133020 | 55 | 0 | 0.0 | 0.0 | 0.00 | 0.00 | 0.00 | 88 | 1018.7 |
| 20260506132519 | 55 | 0 | 0.0 | 0.0 | 0.00 | 0.00 | 0.00 | 88 | 1018.7 |
| 20260506132019 | 55 | 0 | 0.0 | 0.0 | 0.00 | 0.00 | 0.00 | 88 | 1018.7 |
| 20260506131519 | 55 | 0 | 0.0 | 0.0 | 0.00 | 0.00 | 0.00 | 88 | 1018.7 |
| 20260506131019 | 55 | 0 | 0.0 | 0.0 | 0.00 | 0.00 | 0.00 | 88 | 1018.6 |
| 20260506130521 | 55 | 0 | 0.0 | 0.0 | 0.00 | 0.00 | 0.00 | 88 | 1018.7 |
| 20260506125519 | 55 | 0 | 0.0 | 0.0 | 0.00 | 0.00 | 0.00 | 88 | 1018.6 |
| 20260506125019 | 55 | 0 | 0.0 | 0.0 | 0.00 | 0.00 | 0.00 | 88 | 1018.5 |
| 20260506124519 | 55 | 0 | 0.0 | 0.0 | 0.00 | 0.00 | 0.00 | 88 | 1018.4 |
| 20260506124019 | 55 | 0 | 0.0 | 0.0 | 0.00 | 0.00 | 0.00 | 88 | 1018.3 |
| 20260506122019 | 55 | 0 | 0.0 | 0.0 | 0.00 | 0.00 | 0.00 | 88 | 1018.2 |
| 20260506121519 | 55 | 0 | 0.0 | 0.0 | 0.00 | 0.00 | 0.00 | 88 | 1018.2 |
| 20260506120019 | 55 | 0 | 0.0 | 0.0 | 0.00 | 0.00 | 0.00 | 88 | 1018.1 |
| 20260506115519 | 55 | 0 | 0.0 | 0.0 | 0.00 | 0.00 | 0.00 | 88 | 1018.1 |
| 20260506115019 | 55 | 0 | 0.0 | 0.0 | 0.00 | 0.00 | 0.00 | 88 | 1018.1 |
| 20260506114519 | 55 | 0 | 0.0 | 0.0 | 0.00 | 0.00 | 0.00 | 87 | 1018.0 |
| 20260506114020 | 55 | 0 | 0.0 | 0.0 | 0.00 | 0.00 | 0.00 | 87 | 1017.9 |
| 20260506113519 | 55 | 0 | 0.0 | 0.0 | 0.00 | 0.00 | 0.00 | 87 | 1017.9 |
| 20260506112519 | 55 | 0 | 0.0 | 0.0 | 0.00 | 0.00 | 0.00 | 88 | 1017.9 |
| 20260506112021 | 55 | 0 | 0.0 | 0.0 | 0.00 | 0.00 | 0.00 | 88 | 1017.9 |
| 20260506111519 | 55 | 0 | 0.0 | 0.0 | 0.00 | 0.00 | 0.00 | 87 | 1018.0 |
| 20260506111019 | 55 | 0 | 0.0 | 0.0 | 0.00 | 0.00 | 0.00 | 88 | 1017.9 |
| 20260506105519 | 55 | 0 | 0.0 | 0.0 | 0.00 | 0.00 | 0.00 | 88 | 1018.0 |
| 20260506105019 | 55 | 0 | 0.0 | 0.0 | 0.00 | 0.00 | 0.00 | 88 | 1017.9 |
| 20260506104519 | 55 | 0 | 0.0 | 0.0 | 0.00 | 0.00 | 0.00 | 88 | 1017.8 |
| 20260506104019 | 55 | 0 | 0.0 | 0.0 | 0.00 | 0.00 | 0.00 | 88 | 1017.8 |
| 20260506103020 | 55 | 0 | 0.0 | 0.0 | 0.00 | 0.00 | 0.00 | 88 | 1017.7 |
| 20260506102519 | 55 | 0 | 0.0 | 0.0 | 0.00 | 0.00 | 0.00 | 88 | 1017.7 |
| 20260506102019 | 55 | 0 | 0.0 | 0.0 | 0.00 | 0.00 | 0.00 | 88 | 1017.6 |
| 20260506101639 | 55 | 0 | 0.0 | 0.0 | 0.00 | 0.00 | 0.00 | 88 | 1017.5 |
| 20260506101522 | 55 | 0 | 0.0 | 0.0 | 0.00 | 0.00 | 0.00 | 88 | 1017.5 |
| 20260506101019 | 55 | 0 | 0.0 | 0.0 | 0.00 | 0.00 | 0.00 | 88 | 1017.5 |
| 20260506100519 | 55 | 0 | 0.0 | 0.0 | 0.00 | 0.00 | 0.00 | 88 | 1017.5 |
| 20260506095519 | 55 | 0 | 0.0 | 0.0 | 0.00 | 0.00 | 0.00 | 88 | 1017.4 |
| 20260506094519 | 55 | 0 | 0.0 | 0.0 | 0.00 | 0.00 | 0.00 | 88 | 1017.4 |
| 20260506094019 | 55 | 0 | 0.0 | 0.0 | 0.00 | 0.00 | 0.00 | 88 | 1017.3 |
| 20260506092519 | 55 | 0 | 0.0 | 0.0 | 0.00 | 0.00 | 0.00 | 88 | 1017.1 |
| 20260506092019 | 55 | 0 | 0.0 | 0.0 | 0.00 | 0.00 | 0.00 | 88 | 1017.1 |
| 20260506091519 | 55 | 0 | 0.0 | 0.0 | 0.00 | 0.00 | 0.00 | 88 | 1017.1 |
| 20260506091019 | 55 | 0 | 0.0 | 0.0 | 0.00 | 0.00 | 0.00 | 89 | 1017.0 |
| 20260506090519 | 55 | 0 | 0.0 | 0.0 | 0.00 | 0.00 | 0.00 | 88 | 1017.0 |
| 20260506085519 | 55 | 0 | 0.0 | 0.0 | 0.00 | 0.00 | 0.00 | 88 | 1016.9 |
| 20260506085020 | 55 | 0 | 0.0 | 0.0 | 0.00 | 0.00 | 0.00 | 88 | 1016.9 |
| 20260506084019 | 55 | 0 | 0.0 | 0.0 | 0.00 | 0.00 | 0.00 | 88 | 1016.9 |
| 20260506083519 | 55 | 0 | 0.0 | 0.0 | 0.00 | 0.00 | 0.00 | 88 | 1016.9 |
| 20260506083020 | 55 | 0 | 0.0 | 0.0 | 0.00 | 0.00 | 0.00 | 88 | 1016.9 |
| 20260506082519 | 55 | 0 | 0.0 | 0.0 | 0.00 | 0.00 | 0.00 | 88 | 1016.8 |
| 20260506081519 | 55 | 0 | 0.0 | 0.0 | 0.00 | 0.00 | 0.00 | 88 | 1016.7 |